Time;durP1;ratioP1;P1;durP2;ratioP2;P2;SDS_P1;SDS_P2;PMS_P1;PMS_P2;Temp;Humidity;BMP_temperature;BMP_pressure;BME280_temperature;BME280_humidity;BME280_pressure;Samples;Min_cycle;Max_cycle;Signal;HPM_P1;HPM_P2
2021/08/21 00:01:18;;;;;;;6.33;3.90;;;18.60;83.60;;;;;;5055800;28;20448;-75
2021/08/21 00:03:45;;;;;;;3.63;3.33;;;18.60;83.70;;;;;;5055633;28;20450;-75
2021/08/21 00:06:13;;;;;;;5.10;3.53;;;18.50;83.50;;;;;;5055477;28;20513;-75
2021/08/21 00:08:40;;;;;;;4.43;4.00;;;18.50;83.50;;;;;;5055418;28;20468;-75
2021/08/21 00:11:06;;;;;;;6.93;3.77;;;18.60;83.60;;;;;;5055525;28;20461;-75
2021/08/21 00:13:33;;;;;;;4.13;3.70;;;18.50;83.50;;;;;;5055514;28;20445;-75
2021/08/21 00:16:01;;;;;;;7.10;3.67;;;18.50;83.50;;;;;;5055421;28;20861;-75
2021/08/21 00:18:27;;;;;;;3.90;3.60;;;18.50;83.50;;;;;;5055407;28;20500;-75
2021/08/21 00:20:54;;;;;;;3.73;3.43;;;18.50;83.70;;;;;;5055330;28;20453;-75
2021/08/21 00:23:22;;;;;;;4.47;3.57;;;18.50;83.80;;;;;;5055331;28;20442;-75
2021/08/21 00:25:49;;;;;;;5.10;3.57;;;18.40;83.80;;;;;;5055179;28;20453;-75
2021/08/21 00:28:15;;;;;;;3.83;3.33;;;18.40;83.80;;;;;;5055097;28;20461;-75
2021/08/21 00:30:42;;;;;;;4.87;3.30;;;18.40;83.80;;;;;;5054870;28;20935;-75
2021/08/21 00:33:09;;;;;;;4.40;3.50;;;18.40;83.70;;;;;;5055377;28;20445;-75
2021/08/21 00:35:36;;;;;;;5.37;3.23;;;18.40;83.60;;;;;;5054749;28;20939;-75
2021/08/21 00:38:02;;;;;;;3.63;3.00;;;18.30;83.90;;;;;;5054981;28;20532;-75
2021/08/21 00:40:32;;;;;;;5.40;3.20;;;18.30;83.90;;;;;;5055025;28;20433;-75
2021/08/21 00:42:58;;;;;;;3.93;3.63;;;18.20;83.70;;;;;;5054925;28;20445;-75
2021/08/21 00:45:25;;;;;;;6.90;3.17;;;18.30;83.80;;;;;;5054872;28;20452;-75
2021/08/21 00:47:53;;;;;;;7.03;3.30;;;18.20;83.50;;;;;;5054670;28;20477;-75
2021/08/21 00:50:20;;;;;;;3.07;2.57;;;18.20;83.40;;;;;;5054678;28;20449;-75
2021/08/21 00:52:47;;;;;;;3.33;2.80;;;18.10;83.20;;;;;;5054675;28;20441;-75
2021/08/21 00:55:13;;;;;;;3.87;3.57;;;18.10;83.20;;;;;;5054650;28;20452;-75
2021/08/21 00:57:42;;;;;;;3.10;2.80;;;18.10;83.50;;;;;;5054459;28;20449;-75
2021/08/21 01:00:10;;;;;;;3.17;2.90;;;18.10;83.50;;;;;;5054117;28;20472;-75
2021/08/21 01:02:37;;;;;;;3.43;3.13;;;18.00;83.50;;;;;;5054450;28;20472;-75
2021/08/21 01:05:06;;;;;;;5.30;2.93;;;18.00;83.50;;;;;;5054513;28;20810;-75
2021/08/21 01:07:35;;;;;;;5.57;3.17;;;18.00;83.40;;;;;;5054386;28;20489;-75
2021/08/21 01:10:03;;;;;;;3.90;2.97;;;18.00;83.50;;;;;;5053225;28;20561;-75
2021/08/21 01:12:30;;;;;;;3.80;3.20;;;17.90;83.50;;;;;;5054376;28;20476;-75
2021/08/21 01:14:58;;;;;;;3.23;2.80;;;17.90;83.50;;;;;;5054286;28;20450;-75
2021/08/21 01:17:26;;;;;;;3.33;3.03;;;17.90;83.50;;;;;;5054819;28;20446;-75
2021/08/21 01:19:52;;;;;;;3.50;3.17;;;17.90;83.50;;;;;;5054200;28;20545;-75
2021/08/21 01:22:22;;;;;;;2.90;2.70;;;17.90;83.60;;;;;;5054508;28;20445;-75
2021/08/21 01:24:51;;;;;;;4.30;3.00;;;17.90;83.60;;;;;;5053854;28;20970;-75
2021/08/21 01:27:21;;;;;;;3.23;2.93;;;17.90;83.60;;;;;;5053996;28;20473;-75
2021/08/21 01:29:48;;;;;;;3.63;3.33;;;17.80;83.60;;;;;;5053660;28;20984;-75
2021/08/21 01:32:15;;;;;;;4.03;3.63;;;17.80;83.40;;;;;;5053724;28;20819;-75
2021/08/21 01:34:42;;;;;;;7.60;4.00;;;17.80;83.20;;;;;;5054220;28;20511;-75
2021/08/21 01:37:09;;;;;;;4.20;3.90;;;17.70;83.70;;;;;;5053630;28;20495;-75
2021/08/21 01:39:36;;;;;;;6.60;3.83;;;17.70;83.70;;;;;;5053947;28;20462;-75
2021/08/21 01:42:04;;;;;;;3.50;3.20;;;17.70;83.60;;;;;;5053853;28;20457;-75
2021/08/21 01:44:32;;;;;;;3.90;3.40;;;17.70;83.70;;;;;;5053813;28;20465;-75
2021/08/21 01:46:58;;;;;;;4.23;3.40;;;17.70;83.80;;;;;;5053697;28;20898;-75
2021/08/21 01:49:27;;;;;;;4.10;3.70;;;17.70;83.80;;;;;;5053646;28;20519;-75
2021/08/21 01:51:54;;;;;;;3.53;3.23;;;17.60;83.80;;;;;;5053430;28;20519;-75
2021/08/21 01:54:21;;;;;;;3.80;3.37;;;17.70;84.00;;;;;;5053592;28;20499;-75
2021/08/21 01:56:50;;;;;;;5.73;3.30;;;17.60;84.00;;;;;;5053159;28;20928;-75
2021/08/21 01:59:21;;;;;;;3.83;3.27;;;17.60;84.20;;;;;;5053232;28;20477;-75
2021/08/21 02:01:49;;;;;;;4.77;3.27;;;17.60;85.00;;;;;;5054100;28;20434;-75
2021/08/21 02:04:16;;;;;;;3.53;3.00;;;17.60;84.40;;;;;;5053219;28;20777;-75
2021/08/21 02:06:43;;;;;;;3.30;2.93;;;17.60;84.50;;;;;;5053094;28;20994;-75
2021/08/21 02:09:10;;;;;;;5.20;3.60;;;17.60;84.50;;;;;;5053426;28;20469;-75
2021/08/21 02:11:37;;;;;;;4.20;3.00;;;17.60;84.50;;;;;;5053439;28;20461;-75
2021/08/21 02:14:04;;;;;;;4.23;3.10;;;17.60;85.00;;;;;;5053428;28;20495;-75
2021/08/21 02:16:30;;;;;;;6.20;4.10;;;17.60;84.90;;;;;;5053414;28;20433;-75
2021/08/21 02:18:58;;;;;;;4.80;3.50;;;17.50;85.00;;;;;;5053292;28;20466;-75
2021/08/21 02:21:25;;;;;;;3.67;3.37;;;17.60;85.50;;;;;;5052883;28;20449;-75
2021/08/21 02:23:54;;;;;;;7.53;3.80;;;17.50;85.00;;;;;;5053245;28;20449;-75
2021/08/21 02:26:21;;;;;;;5.43;4.10;;;17.50;85.00;;;;;;5053116;28;20519;-75
2021/08/21 02:28:48;;;;;;;3.47;3.27;;;17.50;85.10;;;;;;5053100;28;20489;-75
2021/08/21 02:31:15;;;;;;;5.30;3.80;;;17.50;85.00;;;;;;5053187;28;20790;-75
2021/08/21 02:33:42;;;;;;;8.53;3.67;;;17.50;85.10;;;;;;5053670;28;20446;-75
2021/08/21 02:36:10;;;;;;;11.87;3.50;;;17.60;85.10;;;;;;5053262;28;20441;-75
2021/08/21 02:38:36;;;;;;;4.17;3.87;;;17.50;85.20;;;;;;5053251;28;20461;-75
2021/08/21 02:41:03;;;;;;;4.20;3.47;;;17.50;85.30;;;;;;5053132;28;20430;-75
2021/08/21 02:43:30;;;;;;;4.23;3.83;;;17.50;85.50;;;;;;5053028;28;20449;-75
2021/08/21 02:45:56;;;;;;;6.33;3.23;;;17.50;85.60;;;;;;5052537;28;20442;-75
2021/08/21 02:48:24;;;;;;;4.13;3.30;;;17.50;85.30;;;;;;5052810;28;20852;-76
2021/08/21 02:50:50;;;;;;;4.90;3.90;;;17.40;85.00;;;;;;5052844;28;20438;-75
2021/08/21 02:53:18;;;;;;;4.97;4.33;;;17.40;85.10;;;;;;5052893;28;20441;-75
2021/08/21 02:55:45;;;;;;;9.07;4.33;;;17.30;85.00;;;;;;5052959;28;20454;-75
2021/08/21 02:58:12;;;;;;;7.20;4.23;;;17.30;84.90;;;;;;5052561;28;20830;-75
2021/08/21 03:00:41;;;;;;;3.87;3.57;;;17.30;84.80;;;;;;5052820;28;20453;-75
2021/08/21 03:03:07;;;;;;;5.30;4.63;;;17.20;84.60;;;;;;5053078;28;20464;-75
2021/08/21 03:05:34;;;;;;;4.47;3.67;;;17.20;84.80;;;;;;5052476;28;20928;-75
2021/08/21 03:08:01;;;;;;;3.57;3.27;;;17.20;84.80;;;;;;5052588;28;20862;-75
2021/08/21 03:10:29;;;;;;;4.43;3.90;;;17.20;84.70;;;;;;5052557;28;20799;-75
2021/08/21 03:12:57;;;;;;;5.80;3.60;;;17.20;84.70;;;;;;5052435;28;20951;-75
2021/08/21 03:15:24;;;;;;;4.27;3.90;;;17.20;84.60;;;;;;5052554;28;20454;-75
2021/08/21 03:17:51;;;;;;;4.20;3.80;;;17.20;84.60;;;;;;5052640;28;20441;-75
2021/08/21 03:20:18;;;;;;;4.50;3.70;;;17.20;84.80;;;;;;5052688;28;20450;-75
2021/08/21 03:22:45;;;;;;;7.40;3.40;;;17.20;85.20;;;;;;5052486;28;20210;-75
2021/08/21 03:25:12;;;;;;;5.97;3.60;;;17.20;85.50;;;;;;5052618;28;20449;-75
2021/08/21 03:27:40;;;;;;;5.10;3.63;;;17.20;85.40;;;;;;5052494;28;20480;-74
2021/08/21 03:30:08;;;;;;;4.37;3.97;;;17.20;85.50;;;;;;5052639;28;20445;-75
2021/08/21 03:32:35;;;;;;;4.37;3.90;;;17.20;85.60;;;;;;5053951;28;20457;-75
2021/08/21 03:35:02;;;;;;;3.73;3.43;;;17.10;85.50;;;;;;5055765;28;20954;-75
2021/08/21 03:37:30;;;;;;;5.30;4.53;;;17.10;85.30;;;;;;5055999;28;20441;-75
2021/08/21 03:39:57;;;;;;;4.00;3.43;;;17.00;85.60;;;;;;5055858;28;20817;-75
2021/08/21 03:42:24;;;;;;;6.90;4.17;;;17.00;85.90;;;;;;5056281;28;20446;-75
2021/08/21 03:44:52;;;;;;;4.27;3.87;;;17.00;86.30;;;;;;5056047;28;20448;-75
2021/08/21 03:47:19;;;;;;;5.07;4.20;;;17.00;86.50;;;;;;5055875;28;20519;-75
2021/08/21 03:49:46;;;;;;;6.73;4.00;;;17.00;86.70;;;;;;5055903;28;20465;-75
2021/08/21 03:52:13;;;;;;;5.83;5.17;;;17.00;87.10;;;;;;5055920;28;20496;-75
2021/08/21 03:54:39;;;;;;;8.80;5.90;;;17.10;87.80;;;;;;5055922;28;20449;-75
2021/08/21 03:57:06;;;;;;;14.23;7.53;;;17.10;88.80;;;;;;5055893;28;20446;-75
2021/08/21 03:59:33;;;;;;;8.50;7.60;;;17.20;90.00;;;;;;5055347;28;20511;-75
2021/08/21 04:02:01;;;;;;;9.20;7.80;;;17.20;90.50;;;;;;5055502;28;20446;-75
2021/08/21 04:04:28;;;;;;;7.93;7.30;;;17.30;90.90;;;;;;5055577;28;20457;-75
2021/08/21 04:06:54;;;;;;;9.57;7.50;;;17.30;91.10;;;;;;5055610;28;20456;-75
2021/08/21 04:09:21;;;;;;;7.43;5.77;;;17.30;91.00;;;;;;5055663;28;20485;-75
2021/08/21 04:11:48;;;;;;;6.07;5.47;;;17.30;90.90;;;;;;5055514;28;20450;-75
2021/08/21 04:14:14;;;;;;;6.73;6.13;;;17.40;90.70;;;;;;5055171;28;20441;-75
2021/08/21 04:16:41;;;;;;;9.37;6.20;;;17.40;90.60;;;;;;5055394;28;20449;-75
2021/08/21 04:19:09;;;;;;;6.60;5.63;;;17.40;90.60;;;;;;5054928;28;20465;-75
2021/08/21 04:21:39;;;;;;;7.47;5.70;;;17.40;90.60;;;;;;5055257;28;20441;-75
2021/08/21 04:24:06;;;;;;;7.73;6.93;;;17.40;90.60;;;;;;5054868;28;20486;-75
2021/08/21 04:26:33;;;;;;;7.60;6.50;;;17.40;90.60;;;;;;5055176;28;20472;-75
2021/08/21 04:29:00;;;;;;;11.90;6.50;;;17.40;91.00;;;;;;5054713;28;21025;-75
2021/08/21 04:31:26;;;;;;;7.70;6.97;;;17.40;91.20;;;;;;5055095;28;20456;-75
2021/08/21 04:33:53;;;;;;;9.10;7.50;;;17.40;91.30;;;;;;5055031;28;20492;-75
2021/08/21 04:36:21;;;;;;;10.70;7.17;;;17.40;91.30;;;;;;5055068;28;20475;-75
2021/08/21 04:38:48;;;;;;;7.57;6.30;;;17.50;91.40;;;;;;5055170;28;20469;-75
2021/08/21 04:41:16;;;;;;;6.63;6.03;;;17.50;91.30;;;;;;5054884;28;20445;-75
2021/08/21 04:43:43;;;;;;;7.77;6.73;;;17.50;91.30;;;;;;5054567;28;20457;-75
2021/08/21 04:46:10;;;;;;;7.67;6.47;;;17.50;91.20;;;;;;5055045;28;20441;-75
2021/08/21 04:48:36;;;;;;;8.10;6.40;;;17.50;91.20;;;;;;5054610;28;20597;-75
2021/08/21 04:51:03;;;;;;;7.83;6.57;;;17.50;91.20;;;;;;5054709;28;20446;-75
2021/08/21 04:53:31;;;;;;;7.77;6.60;;;17.50;91.50;;;;;;5054228;28;20940;-76
2021/08/21 04:55:58;;;;;;;6.10;5.60;;;17.50;91.10;;;;;;5054619;28;20441;-75
2021/08/21 04:58:25;;;;;;;7.50;6.47;;;17.50;91.00;;;;;;5054517;28;20462;-75
2021/08/21 05:00:51;;;;;;;6.23;5.63;;;17.50;91.00;;;;;;5054498;28;20468;-75
2021/08/21 05:03:18;;;;;;;6.10;5.63;;;17.50;91.00;;;;;;5054587;28;20445;-75
2021/08/21 05:05:45;;;;;;;6.67;6.07;;;17.50;91.00;;;;;;5054445;28;20441;-75
2021/08/21 05:08:11;;;;;;;6.80;6.13;;;17.50;91.00;;;;;;5054920;28;20842;-75
2021/08/21 05:10:40;;;;;;;8.97;6.70;;;17.60;91.00;;;;;;5054454;28;20468;-75
2021/08/21 05:13:06;;;;;;;5.73;5.23;;;17.60;91.00;;;;;;5054117;28;20897;-75
2021/08/21 05:15:33;;;;;;;6.20;5.70;;;17.60;91.00;;;;;;5054279;28;20445;-75
2021/08/21 05:18:01;;;;;;;6.80;6.30;;;17.60;91.00;;;;;;5054193;28;20523;-75
2021/08/21 05:20:30;;;;;;;10.20;6.63;;;17.60;90.90;;;;;;5053928;28;20953;-75
2021/08/21 05:23:05;;;;;;;6.37;5.77;;;17.70;90.90;;;;;;5054151;28;20450;-75
2021/08/21 05:25:33;;;;;;;5.93;5.43;;;17.70;90.90;;;;;;5054087;28;20520;-75
2021/08/21 05:28:01;;;;;;;7.37;5.80;;;17.70;90.90;;;;;;5053965;28;20496;-75
2021/08/21 05:30:30;;;;;;;6.20;5.70;;;17.70;91.00;;;;;;5054333;28;20433;-75
2021/08/21 05:32:57;;;;;;;7.40;4.90;;;17.80;91.10;;;;;;5053696;28;20935;-75
2021/08/21 05:35:24;;;;;;;6.10;5.50;;;17.80;91.20;;;;;;5053741;28;20794;-76
2021/08/21 05:37:51;;;;;;;7.00;6.30;;;17.80;91.30;;;;;;5053860;28;20448;-76
2021/08/21 05:40:18;;;;;;;6.43;5.80;;;17.90;91.40;;;;;;5053880;28;20808;-76
2021/08/21 05:42:45;;;;;;;6.30;5.80;;;17.90;91.50;;;;;;5053927;28;20790;-76
2021/08/21 05:45:13;;;;;;;6.70;5.50;;;18.00;91.60;;;;;;5053481;28;20943;-75
2021/08/21 05:47:39;;;;;;;6.93;6.33;;;18.00;91.60;;;;;;5053692;28;20520;-75
2021/08/21 05:50:07;;;;;;;7.70;5.53;;;18.10;91.60;;;;;;5053509;28;20430;-75
2021/08/21 05:52:34;;;;;;;8.97;6.23;;;18.10;91.60;;;;;;5053724;28;20810;-76
2021/08/21 05:55:01;;;;;;;7.80;6.47;;;18.10;91.60;;;;;;5053084;28;20452;-76
2021/08/21 05:57:28;;;;;;;6.57;5.33;;;18.10;91.50;;;;;;5053678;28;20448;-75
2021/08/21 05:59:54;;;;;;;7.40;5.80;;;18.20;91.50;;;;;;5054234;28;20473;-76
2021/08/21 06:02:25;;;;;;;10.40;6.00;;;18.10;91.40;;;;;;5053971;28;20441;-76
2021/08/21 06:04:51;;;;;;;8.00;6.40;;;18.10;91.40;;;;;;5053714;28;20433;-76
2021/08/21 06:07:18;;;;;;;10.23;7.00;;;18.10;91.40;;;;;;5053550;28;20422;-76
2021/08/21 06:09:45;;;;;;;9.60;6.90;;;18.20;91.50;;;;;;5053353;28;20511;-75
2021/08/21 06:12:11;;;;;;;8.00;7.10;;;18.10;91.50;;;;;;5053300;28;20449;-75
2021/08/21 06:14:39;;;;;;;9.10;6.97;;;18.10;91.50;;;;;;5053303;28;20433;-75
2021/08/21 06:17:06;;;;;;;7.20;6.00;;;18.10;91.60;;;;;;5053346;28;20465;-75
2021/08/21 06:19:34;;;;;;;6.93;6.33;;;18.10;92.10;;;;;;5053260;28;20472;-75
2021/08/21 06:22:01;;;;;;;9.30;7.37;;;18.10;91.80;;;;;;5053261;28;20445;-75
2021/08/21 06:24:27;;;;;;;7.93;6.37;;;18.10;91.90;;;;;;5053106;28;20456;-75
2021/08/21 06:26:54;;;;;;;10.97;7.10;;;18.10;92.30;;;;;;5053099;28;20449;-76
2021/08/21 06:29:21;;;;;;;8.63;7.73;;;18.20;92.10;;;;;;5053371;28;20481;-75
2021/08/21 06:31:47;;;;;;;8.87;7.93;;;18.20;92.10;;;;;;5053303;28;20466;-75
2021/08/21 06:34:14;;;;;;;11.23;6.43;;;18.20;92.20;;;;;;5053268;28;20453;-76
2021/08/21 06:36:42;;;;;;;9.50;6.70;;;18.30;92.30;;;;;;5053496;28;20445;-76
2021/08/21 06:39:09;;;;;;;12.53;7.93;;;18.30;92.20;;;;;;5053530;28;20808;-76
2021/08/21 06:41:36;;;;;;;8.57;7.70;;;18.30;92.20;;;;;;5053270;28;20472;-75
2021/08/21 06:44:02;;;;;;;8.37;7.63;;;18.40;92.30;;;;;;5053175;28;20446;-75
2021/08/21 06:46:30;;;;;;;12.10;7.93;;;18.50;92.30;;;;;;5053157;28;20445;-76
2021/08/21 06:48:57;;;;;;;7.93;7.20;;;18.60;92.30;;;;;;5053057;28;20987;-76
2021/08/21 06:51:23;;;;;;;9.33;7.60;;;18.70;92.20;;;;;;5053080;28;20441;-75
2021/08/21 06:53:51;;;;;;;10.13;7.40;;;18.80;92.20;;;;;;5053118;28;20796;-76
2021/08/21 06:56:21;;;;;;;7.10;6.40;;;18.90;92.00;;;;;;5057655;28;20448;-76
2021/08/21 06:58:48;;;;;;;8.63;6.80;;;19.00;91.90;;;;;;5057971;28;20474;-75
2021/08/21 07:01:15;;;;;;;9.40;5.50;;;19.10;91.60;;;;;;5059876;28;20897;-75
2021/08/21 07:03:41;;;;;;;9.50;7.03;;;19.30;91.40;;;;;;5052984;28;20449;-75
2021/08/21 07:06:08;;;;;;;7.83;4.90;;;19.40;91.00;;;;;;5053690;28;20448;-75
2021/08/21 07:08:35;;;;;;;7.80;6.70;;;19.50;90.90;;;;;;5057033;28;20535;-75
2021/08/21 07:11:03;;;;;;;7.07;5.70;;;19.70;90.80;;;;;;5056745;28;20464;-75
2021/08/21 07:13:30;;;;;;;6.60;5.93;;;19.80;90.30;;;;;;5056967;28;20448;-75
2021/08/21 07:15:57;;;;;;;8.90;5.53;;;20.00;90.20;;;;;;5057855;28;20855;-75
2021/08/21 07:18:24;;;;;;;6.43;5.47;;;20.10;89.70;;;;;;5057166;28;20998;-75
2021/08/21 07:20:50;;;;;;;8.47;6.90;;;20.30;89.00;;;;;;5056642;28;20449;-75
2021/08/21 07:23:17;;;;;;;6.00;5.47;;;20.40;88.10;;;;;;5056553;28;20449;-76
2021/08/21 07:25:44;;;;;;;5.83;5.33;;;20.60;87.30;;;;;;5056569;28;20828;-76
2021/08/21 07:28:12;;;;;;;8.60;5.40;;;20.70;86.50;;;;;;5056324;28;20465;-75
2021/08/21 07:30:39;;;;;;;7.70;6.30;;;20.90;85.80;;;;;;5056753;28;20448;-75
2021/08/21 07:33:06;;;;;;;8.77;6.63;;;21.00;85.70;;;;;;5056421;28;20502;-75
2021/08/21 07:35:32;;;;;;;6.73;5.77;;;21.20;85.60;;;;;;5056299;28;20448;-75
2021/08/21 07:37:59;;;;;;;5.93;4.87;;;21.30;85.10;;;;;;5056267;28;20503;-76
2021/08/21 07:40:26;;;;;;;7.00;5.83;;;21.40;84.30;;;;;;5055976;28;20438;-76
2021/08/21 07:42:53;;;;;;;6.23;4.90;;;21.60;83.70;;;;;;5056161;28;20791;-76
2021/08/21 07:45:21;;;;;;;6.00;5.23;;;21.80;83.20;;;;;;5056780;28;20492;-76
2021/08/21 07:47:49;;;;;;;7.50;5.90;;;21.90;83.00;;;;;;5055751;28;20966;-76
2021/08/21 07:50:16;;;;;;;9.70;6.60;;;22.10;82.80;;;;;;5056037;28;20913;-75
2021/08/21 07:52:44;;;;;;;7.10;5.80;;;22.20;81.90;;;;;;5056363;28;20489;-76
2021/08/21 07:55:11;;;;;;;5.67;4.90;;;22.40;81.70;;;;;;5055939;28;20477;-76
2021/08/21 07:57:38;;;;;;;7.00;6.33;;;22.60;81.30;;;;;;5055932;28;20818;-76
2021/08/21 08:00:06;;;;;;;5.60;5.10;;;22.70;80.50;;;;;;5055621;28;20469;-76
2021/08/21 08:02:34;;;;;;;5.83;5.13;;;22.90;79.80;;;;;;5055805;28;20516;-76
2021/08/21 08:05:01;;;;;;;5.27;4.30;;;23.10;79.00;;;;;;5055770;28;20844;-76
2021/08/21 08:07:27;;;;;;;10.87;5.30;;;23.30;78.40;;;;;;5055732;28;20460;-76
2021/08/21 08:09:54;;;;;;;6.33;4.17;;;23.60;78.50;;;;;;5055505;28;20481;-76
2021/08/21 08:12:21;;;;;;;4.70;4.23;;;23.80;77.40;;;;;;5055662;28;20437;-76
2021/08/21 08:14:47;;;;;;;4.90;4.43;;;24.00;76.30;;;;;;5055826;28;20445;-76
2021/08/21 08:17:14;;;;;;;5.80;5.00;;;24.20;75.30;;;;;;5055414;28;20461;-76
2021/08/21 08:19:42;;;;;;;3.97;3.67;;;24.40;75.00;;;;;;5054905;28;20469;-76
2021/08/21 08:22:09;;;;;;;8.40;5.00;;;24.70;73.90;;;;;;5055413;28;20499;-76
2021/08/21 08:24:35;;;;;;;6.90;6.30;;;24.90;73.40;;;;;;5055091;28;20450;-76
2021/08/21 08:27:02;;;;;;;9.10;6.00;;;25.00;71.60;;;;;;5055374;28;20448;-76
2021/08/21 08:29:29;;;;;;;7.73;4.60;;;24.90;69.50;;;;;;5055197;28;20892;-76
2021/08/21 08:31:56;;;;;;;4.40;4.00;;;24.90;69.90;;;;;;5055193;28;20967;-76
2021/08/21 08:34:23;;;;;;;5.73;4.00;;;25.00;70.80;;;;;;5055217;28;20442;-76
2021/08/21 08:36:51;;;;;;;3.90;3.33;;;25.20;70.80;;;;;;5054844;28;20815;-76
2021/08/21 08:39:17;;;;;;;4.30;3.90;;;25.40;69.80;;;;;;5055026;28;20458;-76
2021/08/21 08:41:44;;;;;;;3.87;3.53;;;25.50;68.80;;;;;;5055108;28;20441;-76
2021/08/21 08:44:11;;;;;;;8.13;4.87;;;25.80;68.30;;;;;;5054991;28;20441;-76
2021/08/21 08:46:39;;;;;;;5.13;3.87;;;26.10;67.80;;;;;;5054957;28;20445;-76
2021/08/21 08:49:07;;;;;;;4.23;3.93;;;26.30;64.10;;;;;;5054788;28;20481;-76
2021/08/21 08:51:34;;;;;;;3.67;3.33;;;26.50;62.60;;;;;;5054862;28;20449;-76
2021/08/21 08:54:02;;;;;;;3.37;3.07;;;26.70;61.60;;;;;;5055634;28;20473;-76
2021/08/21 08:56:29;;;;;;;4.13;3.70;;;26.80;60.60;;;;;;5055003;28;20446;-76
2021/08/21 08:58:56;;;;;;;3.97;2.93;;;26.80;58.80;;;;;;5054517;28;20472;-76
2021/08/21 09:01:22;;;;;;;4.43;2.67;;;26.70;59.30;;;;;;5054739;28;20430;-76
2021/08/21 09:03:49;;;;;;;5.27;4.50;;;26.70;60.40;;;;;;5054589;28;20448;-76
2021/08/21 09:06:33;;;;;;;4.90;4.40;;;26.70;59.60;;;;;;5054561;28;20446;-76
2021/08/21 09:09:11;;;;;;;4.67;4.17;;;26.80;59.20;;;;;;5054670;28;20485;-76
2021/08/21 09:11:43;;;;;;;7.70;3.43;;;26.90;58.40;;;;;;5054669;28;20469;-76
2021/08/21 09:14:17;;;;;;;3.57;3.27;;;27.10;59.30;;;;;;5054465;28;20437;-76
2021/08/21 09:16:44;;;;;;;4.50;2.87;;;27.40;59.50;;;;;;5054416;28;20453;-76
2021/08/21 09:19:11;;;;;;;3.77;3.40;;;27.70;59.20;;;;;;5054276;28;20469;-76
2021/08/21 09:21:37;;;;;;;3.57;2.67;;;28.00;58.70;;;;;;5054249;28;20461;-76
2021/08/21 09:24:26;;;;;;;3.30;2.80;;;28.30;58.50;;;;;;5054386;28;20445;-76
2021/08/21 09:26:53;;;;;;;3.40;3.10;;;28.60;57.30;;;;;;5054245;28;20426;-76
2021/08/21 09:29:27;;;;;;;3.43;2.90;;;28.80;56.10;;;;;;5053624;28;20485;-76
2021/08/21 09:32:06;;;;;;;8.13;4.23;;;29.10;55.30;;;;;;5053890;28;20445;-76
2021/08/21 09:34:33;;;;;;;3.13;2.77;;;29.30;52.40;;;;;;5054162;28;20434;-76
2021/08/21 09:37:00;;;;;;;3.03;2.73;;;29.50;52.30;;;;;;5053747;28;20854;-76
2021/08/21 09:39:37;;;;;;;3.37;2.87;;;29.70;52.70;;;;;;5053942;28;20468;-76
2021/08/21 09:42:06;;;;;;;4.27;2.60;;;29.90;52.20;;;;;;5054018;28;20434;-76
2021/08/21 09:44:34;;;;;;;4.50;4.07;;;30.10;51.20;;;;;;5053926;28;20451;-76
2021/08/21 09:47:18;;;;;;;3.50;3.20;;;30.30;48.60;;;;;;5053913;28;20452;-76
2021/08/21 09:49:45;;;;;;;5.97;2.80;;;30.40;49.40;;;;;;5052666;28;21050;-76
2021/08/21 09:52:14;;;;;;;4.03;3.10;;;30.60;49.50;;;;;;5053766;28;20449;-76
2021/08/21 09:54:44;;;;;;;6.10;4.03;;;30.70;48.40;;;;;;5053729;28;20449;-76
2021/08/21 09:57:12;;;;;;;2.93;2.60;;;30.90;47.30;;;;;;5053738;28;20440;-76
2021/08/21 09:59:40;;;;;;;4.47;3.50;;;31.10;47.00;;;;;;5053442;28;20921;-76
2021/08/21 10:02:09;;;;;;;5.60;4.47;;;31.30;47.10;;;;;;5054028;28;20448;-76
2021/08/21 10:04:37;;;;;;;4.33;3.93;;;31.60;45.40;;;;;;5053634;28;20444;-76
2021/08/21 10:07:05;;;;;;;3.20;2.90;;;31.70;45.30;;;;;;5053815;28;20440;-76
2021/08/21 10:09:33;;;;;;;4.10;3.70;;;32.00;45.00;;;;;;5053106;28;20890;-76
2021/08/21 10:12:02;;;;;;;3.47;2.87;;;32.30;44.10;;;;;;5053552;28;20471;-76
2021/08/21 10:14:30;;;;;;;3.30;3.00;;;32.50;43.90;;;;;;5053524;28;20445;-76
2021/08/21 10:16:57;;;;;;;3.50;2.93;;;32.80;43.40;;;;;;5053469;28;20447;-76
2021/08/21 10:19:25;;;;;;;7.27;4.07;;;33.10;43.10;;;;;;5053446;28;20456;-76
2021/08/21 10:21:54;;;;;;;3.87;3.50;;;33.50;42.00;;;;;;5054529;28;20448;-76
2021/08/21 10:24:29;;;;;;;5.73;3.20;;;33.80;41.30;;;;;;5053469;28;20445;-76
2021/08/21 10:27:04;;;;;;;5.30;3.43;;;34.20;41.50;;;;;;5053387;28;20456;-76
2021/08/21 10:29:32;;;;;;;4.63;4.23;;;34.50;40.50;;;;;;5053295;28;20487;-76
2021/08/21 10:31:59;;;;;;;6.40;5.90;;;34.80;38.90;;;;;;5053438;28;20448;-76
2021/08/21 10:34:26;;;;;;;5.33;3.97;;;35.00;36.40;;;;;;5053340;28;20852;-77
2021/08/21 10:36:57;;;;;;;6.40;3.87;;;35.00;36.20;;;;;;5053563;28;20447;-76
2021/08/21 10:39:27;;;;;;;3.27;2.97;;;35.30;37.40;;;;;;5053898;28;20465;-76
2021/08/21 10:41:55;;;;;;;5.60;3.40;;;35.60;35.60;;;;;;5055394;28;20452;-76
2021/08/21 10:44:43;;;;;;;3.37;3.07;;;35.90;35.50;;;;;;5057536;28;20206;-77
2021/08/21 10:47:30;;;;;;;3.63;3.27;;;36.40;33.30;;;;;;5057284;28;20202;-76
2021/08/21 10:50:00;;;;;;;6.50;3.60;;;36.80;33.40;;;;;;5057004;28;20233;-76
2021/08/21 10:52:53;;;;;;;5.50;5.00;;;37.40;33.50;;;;;;5057211;28;20213;-77
2021/08/21 10:55:25;;;;;;;4.00;3.45;;;37.90;29.90;;;;;;5043188;28;20209;-76
2021/08/21 10:58:02;;;;;;;3.28;2.97;;;37.80;30.00;;;;;;5057139;28;20202;-76
2021/08/21 11:00:52;;;;;;;7.17;3.73;;;37.70;30.80;;;;;;5056784;28;20390;-76
2021/08/21 11:03:42;;;;;;;4.07;2.80;;;38.00;29.10;;;;;;5056976;28;20191;-77
2021/08/21 11:06:11;;;;;;;3.15;2.90;;;38.20;29.80;;;;;;5056966;28;20198;-77
2021/08/21 11:09:01;;;;;;;4.40;3.00;;;38.50;30.10;;;;;;5056774;28;20226;-77
2021/08/21 11:11:33;;;;;;;2.70;2.30;;;38.30;31.00;;;;;;5056844;28;20209;-76
2021/08/21 11:14:03;;;;;;;2.95;2.10;;;38.20;31.70;;;;;;5056781;28;20259;-77
2021/08/21 11:16:46;;;;;;;3.15;2.85;;;38.50;31.10;;;;;;5056803;28;20206;-76
2021/08/21 11:19:13;;;;;;;5.25;2.88;;;39.00;28.30;;;;;;5056647;28;20226;-77
2021/08/21 11:21:41;;;;;;;2.47;2.00;;;39.30;27.40;;;;;;5056616;28;20206;-77
2021/08/21 11:24:25;;;;;;;6.80;2.78;;;39.60;27.90;;;;;;5056595;28;20211;-76
2021/08/21 11:27:13;;;;;;;4.32;3.20;;;40.10;28.50;;;;;;5056520;28;20248;-77
2021/08/21 11:30:10;;;;;;;2.50;2.30;;;40.60;26.70;;;;;;5056022;28;20226;-77
2021/08/21 11:32:42;;;;;;;4.07;3.03;;;41.30;27.10;;;;;;5044143;28;20208;-77
2021/08/21 11:35:09;;;;;;;3.92;2.90;;;41.80;26.30;;;;;;5056566;28;20194;-77
2021/08/21 11:37:38;;;;;;;3.00;2.47;;;42.00;24.80;;;;;;5056381;28;20206;-77
2021/08/21 11:40:06;;;;;;;2.65;2.20;;;42.20;24.40;;;;;;5056196;28;20222;-77
2021/08/21 11:42:49;;;;;;;2.28;2.08;;;42.40;24.90;;;;;;5056173;28;20210;-77
2021/08/21 11:45:16;;;;;;;3.25;2.25;;;42.70;25.10;;;;;;5056341;28;20191;-77
2021/08/21 11:47:43;;;;;;;2.30;2.10;;;43.00;25.40;;;;;;5056109;28;20206;-77
2021/08/21 11:50:23;;;;;;;3.45;3.15;;;43.30;24.70;;;;;;5056103;28;20249;-77
2021/08/21 11:52:53;;;;;;;5.22;2.78;;;43.30;22.90;;;;;;5055330;28;20197;-77
2021/08/21 11:55:22;;;;;;;2.30;1.70;;;43.20;22.40;;;;;;5056214;28;20207;-77
2021/08/21 11:57:50;;;;;;;3.20;2.55;;;42.90;23.30;;;;;;5056215;28;20209;-76
2021/08/21 12:00:20;;;;;;;2.45;2.25;;;42.50;23.50;;;;;;5055795;28;20238;-77
2021/08/21 12:02:48;;;;;;;2.53;2.33;;;42.40;23.70;;;;;;5057348;28;20210;-77
2021/08/21 12:05:24;;;;;;;2.50;2.22;;;42.00;23.40;;;;;;5057439;28;20206;-77
2021/08/21 12:07:52;;;;;;;2.90;2.00;;;41.80;24.30;;;;;;5058168;28;20562;-77
2021/08/21 12:10:19;;;;;;;3.38;2.33;;;41.70;25.40;;;;;;5056277;28;20198;-77
2021/08/21 12:12:53;;;;;;;1.95;1.85;;;41.60;25.50;;;;;;5055800;28;20210;-77
2021/08/21 12:15:20;;;;;;;2.70;2.47;;;41.00;26.20;;;;;;5055881;28;20218;-77
2021/08/21 12:17:48;;;;;;;3.38;2.42;;;40.30;27.10;;;;;;5055870;28;20214;-76
2021/08/21 12:20:15;;;;;;;3.30;3.08;;;39.80;27.40;;;;;;5055655;28;20219;-77
2021/08/21 12:22:43;;;;;;;2.90;2.55;;;39.90;27.80;;;;;;5055725;28;20209;-77
2021/08/21 12:25:12;;;;;;;3.50;2.60;;;39.70;27.60;;;;;;5055774;28;20229;-77
2021/08/21 12:27:38;;;;;;;2.55;2.28;;;39.60;27.70;;;;;;5055647;28;20206;-77
2021/08/21 12:30:11;;;;;;;5.07;3.13;;;39.80;26.90;;;;;;5055641;28;20225;-77
2021/08/21 12:32:38;;;;;;;3.97;2.75;;;40.10;26.90;;;;;;5055712;28;20206;-76
2021/08/21 12:35:16;;;;;;;2.40;2.20;;;40.40;25.50;;;;;;5055579;28;20210;-77
2021/08/21 12:37:43;;;;;;;2.75;2.42;;;41.00;25.50;;;;;;5055520;28;20210;-77
2021/08/21 12:40:14;;;;;;;3.88;2.25;;;41.60;25.60;;;;;;5055427;28;20229;-77
2021/08/21 12:42:41;;;;;;;2.90;2.40;;;41.80;25.40;;;;;;5056285;28;20194;-77
2021/08/21 12:45:22;;;;;;;2.70;2.50;;;41.60;25.40;;;;;;5055286;28;20579;-77
2021/08/21 12:47:49;;;;;;;2.80;2.60;;;41.10;25.90;;;;;;5057081;28;20205;-77
2021/08/21 12:50:16;;;;;;;2.45;2.35;;;40.70;26.70;;;;;;5055000;28;20573;-77
2021/08/21 12:52:45;;;;;;;3.00;2.80;;;40.20;27.20;;;;;;5055211;28;20206;-77